If you wish to contribute or participate in the discussions about articles you are invited to join SKYbrary as a registered user

 Actions

Zadar Airport

From SKYbrary Wiki

LDZD
Airport
ICAO: LDZD – IATA: ZAD
Summary
Name Zadar Airport
Region Europe
Territory Croatia HR.gif
Location Zemunik Donji, Ravni Kotari
Serving Zadar
Elevation 88.087 m <br />289 ft88.087 m <br />
Coordinates 44° 6' 0.61" N, 15° 21' 26.96" E
Runways
Designator Length Width Surface ROPS
4/22 2000 m6,561.68 ft <br /> 45 m147.638 ft <br /> ASP yes/yes
14/32 2500 m8,202.1 ft <br /> 45 m147.638 ft <br /> ASP yes/yes


METAR
Observation LDZD 270100Z 02006KT 340V050 CAVOK 06/03 Q1021
Station Zadar / Zemunik
Date/Time 27 October 2021 01:00:00
Wind direction 20°
Wind speed 06 kts
Lowest cloud amount clouds and visibility OK
Temperature 6°C
Dew point 3°C
Humidity 81%
QNH 1021 hPa
Weather condition n/a

Zadar Airport is an international airport serving Zadar, Croatia

Climatology

Warm mediterranean climate (Köppen climate classification Csa)

Maps

Terrain

Loading map...

Airport Layout

Loading map...


Accidents & Serious Incidents at or in vicinity of LDZD

None on SKYbrary